Time;durP1;ratioP1;P1;durP2;ratioP2;P2;SDS_P1;SDS_P2;PMS_P1;PMS_P2;Temp;Humidity;BMP_temperature;BMP_pressure;BME280_temperature;BME280_humidity;BME280_pressure;Samples;Min_cycle;Max_cycle;Signal;HPM_P1;HPM_P2
2023/01/29 00:08:50;;;;;;;9.43;5.00;;;4.30;49.90;;;;;;20672951;28;20050;-44
2023/01/29 00:18:51;;;;;;;11.07;6.80;;;4.30;48.00;;;;;;20669828;28;20034;-44
2023/01/29 00:28:52;;;;;;;7.85;4.45;;;4.40;47.40;;;;;;20667123;28;20042;-44
2023/01/29 00:38:57;;;;;;;11.60;6.55;;;4.30;50.80;;;;;;20641720;28;20057;-44
2023/01/29 00:48:58;;;;;;;7.82;4.50;;;4.30;58.70;;;;;;20642426;28;20872;-44
2023/01/29 00:58:59;;;;;;;9.10;4.55;;;4.30;50.20;;;;;;20654286;28;20054;-44
2023/01/29 01:19:20;;;;;;;11.57;6.03;;;4.30;38.20;;;;;;20642029;28;20494;-44
2023/01/29 01:29:21;;;;;;;9.20;4.68;;;4.30;44.50;;;;;;20657756;28;20424;-44
2023/01/29 01:39:23;;;;;;;11.13;5.65;;;4.20;55.20;;;;;;20662707;28;20033;-44
2023/01/29 01:49:24;;;;;;;8.68;5.13;;;4.20;60.80;;;;;;20653927;28;20104;-44
2023/01/29 01:59:25;;;;;;;7.25;4.40;;;4.10;58.30;;;;;;20649127;28;20851;-44
2023/01/29 02:09:53;;;;;;;14.95;7.43;;;4.10;65.60;;;;;;20649494;28;20477;-44
2023/01/29 02:20:17;;;;;;;10.15;6.32;;;4.20;65.50;;;;;;20658238;28;20038;-44
2023/01/29 02:30:36;;;;;;;11.95;6.40;;;4.10;67.90;;;;;;20659100;28;20670;-45
2023/01/29 02:40:53;;;;;;;13.90;5.97;;;4.10;65.20;;;;;;20654579;28;20680;-44
2023/01/29 02:51:20;;;;;;;15.63;8.30;;;4.10;64.40;;;;;;20642815;28;20188;-44
2023/01/29 03:02:06;;;;;;;11.75;5.90;;;4.10;68.00;;;;;;20636768;28;20921;-44
2023/01/29 03:12:32;;;;;;;19.65;8.57;;;4.20;65.60;;;;;;20651410;28;20894;-44
2023/01/29 03:22:36;;;;;;;13.20;8.18;;;4.20;60.80;;;;;;20649679;28;20772;-44
2023/01/29 03:43:33;;;;;;;14.88;7.47;;;4.10;71.10;;;;;;21156461;23;20049;-44
2023/01/29 03:53:46;;;;;;;12.68;8.45;;;4.10;62.20;;;;;;20646316;28;21761;-45
2023/01/29 04:03:55;;;;;;;15.82;8.40;;;4.10;69.60;;;;;;20675585;28;20050;-44
2023/01/29 04:13:57;;;;;;;16.70;7.75;;;4.10;62.60;;;;;;20674480;28;20046;-45
2023/01/29 04:23:58;;;;;;;14.75;8.88;;;4.10;60.90;;;;;;20646154;28;20772;-45
2023/01/29 04:34:27;;;;;;;14.35;8.48;;;4.00;67.40;;;;;;20651774;28;20038;-45
2023/01/29 04:45:14;;;;;;;16.48;8.77;;;4.10;67.00;;;;;;20645603;28;20346;-45
2023/01/29 04:55:30;;;;;;;14.18;8.75;;;3.90;71.30;;;;;;20627433;28;20827;-45
2023/01/29 05:05:31;;;;;;;14.95;7.32;;;3.90;79.50;;;;;;20665518;28;20774;-45
2023/01/29 05:15:37;;;;;;;13.13;6.53;;;4.00;66.60;;;;;;20666901;28;20045;-45
2023/01/29 05:25:38;;;;;;;20.30;9.07;;;3.90;63.00;;;;;;20653671;28;20254;-45
2023/01/29 05:35:40;;;;;;;12.73;7.07;;;3.90;66.90;;;;;;20656053;28;20054;-45
2023/01/29 05:45:41;;;;;;;12.68;9.73;;;4.00;65.00;;;;;;20664505;28;20038;-45
2023/01/29 05:55:48;;;;;;;12.40;7.30;;;4.00;54.40;;;;;;20655603;28;20038;-45
2023/01/29 06:05:49;;;;;;;11.48;7.43;;;3.90;55.80;;;;;;20665364;28;20588;-45
2023/01/29 06:15:50;;;;;;;17.42;10.93;;;3.90;56.90;;;;;;20640710;28;20449;-45
2023/01/29 06:25:51;;;;;;;14.02;9.02;;;4.00;49.30;;;;;;20636025;28;20639;-45
2023/01/29 06:36:00;;;;;;;16.33;9.00;;;4.00;41.90;;;;;;20639162;28;20054;-44
2023/01/29 06:46:01;;;;;;;14.10;6.90;;;3.90;46.60;;;;;;20661193;28;20760;-44
2023/01/29 06:56:03;;;;;;;15.90;6.75;;;3.80;55.40;;;;;;20651500;28;20046;-45
2023/01/29 07:06:05;;;;;;;14.68;7.88;;;3.90;57.50;;;;;;20674927;28;20085;-45
2023/01/29 07:16:06;;;;;;;13.73;7.40;;;3.90;53.80;;;;;;20664141;28;20038;-44
2023/01/29 07:26:09;;;;;;;12.27;6.97;;;3.90;44.90;;;;;;20662161;28;20089;-44
2023/01/29 07:36:11;;;;;;;16.05;8.50;;;4.00;39.40;;;;;;20651316;28;20101;-45
2023/01/29 07:46:12;;;;;;;18.25;9.48;;;4.00;37.50;;;;;;20676690;28;20089;-45
2023/01/29 07:56:13;;;;;;;12.77;7.25;;;3.90;44.40;;;;;;20677711;28;20061;-45
2023/01/29 08:06:14;;;;;;;14.05;8.23;;;3.90;46.30;;;;;;20667836;28;20088;-45
2023/01/29 08:16:15;;;;;;;11.60;7.57;;;4.00;41.60;;;;;;20664250;28;20374;-44
2023/01/29 08:26:16;;;;;;;10.45;6.28;;;4.10;40.30;;;;;;20653282;28;20405;-44
2023/01/29 08:36:17;;;;;;;12.40;7.10;;;4.10;30.90;;;;;;20645536;28;20402;-44
2023/01/29 08:46:18;;;;;;;12.93;6.90;;;4.10;28.90;;;;;;20645494;28;20048;-45
2023/01/29 08:56:19;;;;;;;14.88;7.28;;;4.20;28.10;;;;;;20649521;28;20045;-44
2023/01/29 09:06:20;;;;;;;14.63;7.88;;;4.30;27.70;;;;;;20640469;28;20042;-45
2023/01/29 09:16:21;;;;;;;13.82;6.28;;;4.30;27.70;;;;;;20656203;28;20046;-44
2023/01/29 09:26:22;;;;;;;14.30;6.88;;;4.30;27.40;;;;;;20647941;28;20030;-45
2023/01/29 09:36:23;;;;;;;11.50;5.78;;;4.30;26.40;;;;;;20659751;28;20508;-44
2023/01/29 09:46:24;;;;;;;10.80;5.68;;;4.50;20.00;;;;;;20644269;28;20035;-44
2023/01/29 09:56:27;;;;;;;15.90;7.03;;;4.50;22.80;;;;;;20640078;28;20840;-45
2023/01/29 10:06:44;;;;;;;15.30;7.20;;;4.40;27.50;;;;;;20643158;28;20050;-44
2023/01/29 10:17:20;;;;;;;13.10;7.70;;;4.50;23.60;;;;;;20659040;28;20097;-44
2023/01/29 10:27:22;;;;;;;13.50;7.25;;;4.50;20.80;;;;;;20658641;28;20790;-44
2023/01/29 10:37:30;;;;;;;18.50;8.27;;;4.50;23.90;;;;;;20660573;28;20053;-44
2023/01/29 10:47:43;;;;;;;12.20;6.70;;;4.50;27.60;;;;;;20671204;28;20882;-45
2023/01/29 10:57:56;;;;;;;14.55;7.53;;;4.50;29.70;;;;;;20654159;28;20050;-44
2023/01/29 11:08:11;;;;;;;17.08;9.50;;;4.60;38.30;;;;;;20654502;28;20045;-45
2023/01/29 11:18:14;;;;;;;14.15;7.28;;;4.60;32.00;;;;;;20659852;28;21891;-44
2023/01/29 11:28:44;;;;;;;15.70;8.75;;;4.60;36.90;;;;;;20649614;28;20571;-45
2023/01/29 11:38:45;;;;;;;17.85;9.25;;;4.70;46.90;;;;;;20664479;28;20058;-45
2023/01/29 11:48:53;;;;;;;17.73;8.73;;;4.60;49.70;;;;;;20677047;28;20048;-45
2023/01/29 11:58:56;;;;;;;16.20;9.30;;;4.60;44.80;;;;;;20655109;28;20042;-45
2023/01/29 12:09:00;;;;;;;19.05;9.60;;;4.70;48.90;;;;;;20664542;28;20054;-44
2023/01/29 12:19:41;;;;;;;13.38;7.55;;;4.80;49.10;;;;;;20671096;28;20895;-44
2023/01/29 12:29:42;;;;;;;14.98;8.60;;;4.80;63.20;;;;;;20648063;28;20751;-44
2023/01/29 12:39:43;;;;;;;19.77;9.63;;;4.80;56.10;;;;;;20650191;28;20046;-45
2023/01/29 12:49:50;;;;;;;15.80;9.15;;;4.90;54.00;;;;;;20645341;28;20104;-44
2023/01/29 13:00:15;;;;;;;16.67;8.50;;;4.90;57.20;;;;;;20651932;28;20038;-44
2023/01/29 13:10:27;;;;;;;14.20;7.40;;;5.20;48.10;;;;;;20657426;28;20701;-44
2023/01/29 13:20:31;;;;;;;12.60;8.23;;;5.30;41.00;;;;;;20666804;28;20879;-45
2023/01/29 13:30:35;;;;;;;18.85;9.23;;;5.40;36.90;;;;;;20655839;28;20041;-44
2023/01/29 13:40:37;;;;;;;16.00;8.95;;;5.40;45.40;;;;;;20653990;28;20033;-45
2023/01/29 13:50:41;;;;;;;13.95;7.38;;;5.40;47.90;;;;;;20643014;28;20046;-44
2023/01/29 14:00:42;;;;;;;19.05;10.02;;;5.50;40.30;;;;;;20649450;28;20034;-45
2023/01/29 14:10:43;;;;;;;11.10;7.57;;;5.50;42.20;;;;;;20653957;28;20235;-45
2023/01/29 14:20:47;;;;;;;12.98;8.55;;;5.50;36.60;;;;;;20665895;28;20227;-44
2023/01/29 14:30:49;;;;;;;16.35;8.32;;;5.50;32.50;;;;;;20656908;28;20567;-44
2023/01/29 14:41:22;;;;;;;13.02;6.57;;;5.60;32.70;;;;;;20657681;28;20046;-45
2023/01/29 14:51:25;;;;;;;12.23;5.65;;;5.50;34.40;;;;;;20651039;28;20674;-44
2023/01/29 15:01:53;;;;;;;12.73;8.07;;;5.60;39.00;;;;;;20645176;28;21942;-44
2023/01/29 15:12:40;;;;;;;15.95;8.25;;;5.50;41.70;;;;;;20631477;28;20457;-44
2023/01/29 15:22:43;;;;;;;16.30;6.72;;;5.50;48.50;;;;;;20535992;28;20793;-44
2023/01/29 15:32:45;;;;;;;22.00;12.05;;;5.50;59.40;;;;;;20679172;28;20053;-44
2023/01/29 15:42:47;;;;;;;12.32;6.75;;;5.40;64.70;;;;;;20679791;28;20124;-45
2023/01/29 15:52:52;;;;;;;13.05;7.70;;;5.40;61.60;;;;;;20671410;28;20046;-44
2023/01/29 16:02:54;;;;;;;13.82;7.13;;;5.30;78.80;;;;;;20677044;28;20034;-44
2023/01/29 16:12:56;;;;;;;15.73;8.68;;;5.20;94.20;;;;;;20668740;28;20038;-45
2023/01/29 16:22:58;;;;;;;12.90;7.75;;;5.10;99.90;;;;;;20674678;28;20042;-44
2023/01/29 16:33:04;;;;;;;15.57;7.97;;;5.10;99.90;;;;;;20657569;28;20041;-44
2023/01/29 16:43:17;;;;;;;17.93;8.77;;;4.90;99.90;;;;;;20648700;28;20042;-44
2023/01/29 16:53:22;;;;;;;15.15;7.80;;;4.90;99.90;;;;;;20660466;28;20113;-45
2023/01/29 17:03:26;;;;;;;16.52;7.97;;;4.80;99.90;;;;;;20640692;28;20369;-44
2023/01/29 17:13:36;;;;;;;11.68;8.40;;;4.80;99.90;;;;;;20651382;28;21928;-44
2023/01/29 17:23:37;;;;;;;16.40;8.77;;;4.90;99.90;;;;;;20639538;28;20429;-44
2023/01/29 17:33:42;;;;;;;17.67;8.30;;;4.90;99.90;;;;;;20661954;28;20409;-44
2023/01/29 17:43:43;;;;;;;13.93;7.78;;;4.90;99.90;;;;;;20666104;28;20108;-44
2023/01/29 17:53:44;;;;;;;21.48;8.60;;;4.90;95.90;;;;;;20665309;28;20050;-44
2023/01/29 18:03:45;;;;;;;18.40;9.38;;;4.90;96.00;;;;;;20640485;28;20074;-44
2023/01/29 18:13:46;;;;;;;25.83;9.45;;;5.00;99.80;;;;;;20640075;28;20034;-45
2023/01/29 18:23:47;;;;;;;17.08;9.73;;;4.90;99.50;;;;;;20653613;28;20034;-44
2023/01/29 18:33:48;;;;;;;16.17;9.07;;;5.00;99.90;;;;;;20638855;28;20054;-44
2023/01/29 18:43:51;;;;;;;15.68;8.10;;;5.00;99.90;;;;;;20646919;28;20049;-44
2023/01/29 18:53:52;;;;;;;14.05;9.23;;;5.00;99.90;;;;;;20650832;28;20857;-44
2023/01/29 19:03:53;;;;;;;18.65;8.18;;;5.00;99.90;;;;;;20668211;28;20591;-44
2023/01/29 19:13:54;;;;;;;20.52;9.63;;;5.10;99.90;;;;;;20665616;28;20573;-44
2023/01/29 19:23:55;;;;;;;17.92;9.35;;;5.00;99.90;;;;;;20662908;28;20473;-45
2023/01/29 19:33:57;;;;;;;16.88;8.65;;;5.10;99.90;;;;;;20660966;28;20125;-44
2023/01/29 19:43:58;;;;;;;15.05;8.63;;;5.00;99.90;;;;;;20656675;28;20077;-45
2023/01/29 19:53:59;;;;;;;11.60;7.95;;;5.00;99.90;;;;;;20650825;28;20705;-43
2023/01/29 20:04:00;;;;;;;20.33;8.88;;;5.00;99.90;;;;;;20637048;28;20034;-44
2023/01/29 20:14:01;;;;;;;14.85;8.32;;;5.00;99.90;;;;;;20640699;28;20102;-46
2023/01/29 20:24:03;;;;;;;17.10;10.60;;;5.10;99.90;;;;;;20649137;28;20070;-46
2023/01/29 20:34:04;;;;;;;21.95;8.52;;;5.10;99.90;;;;;;20639197;28;20170;-46
2023/01/29 20:44:05;;;;;;;16.63;8.40;;;5.20;99.90;;;;;;20635171;28;20185;-46
2023/01/29 20:54:06;;;;;;;26.02;10.85;;;5.40;99.90;;;;;;20632550;28;20137;-46
2023/01/29 21:04:08;;;;;;;18.60;11.07;;;5.30;99.90;;;;;;20636887;28;20552;-45
2023/01/29 21:14:09;;;;;;;19.00;10.73;;;5.40;99.90;;;;;;20631270;28;20070;-46
2023/01/29 21:24:11;;;;;;;19.10;10.75;;;5.40;99.90;;;;;;20646088;28;20037;-46
2023/01/29 21:34:12;;;;;;;18.77;10.48;;;5.40;99.90;;;;;;20638290;28;20133;-47
2023/01/29 21:44:14;;;;;;;17.25;10.02;;;5.50;99.90;;;;;;20637341;28;20045;-46
2023/01/29 21:54:15;;;;;;;24.15;12.20;;;5.50;99.90;;;;;;20649542;28;20069;-46
2023/01/29 22:04:16;;;;;;;18.38;9.85;;;5.60;99.90;;;;;;20648411;28;20192;-46
2023/01/29 22:14:18;;;;;;;17.52;9.73;;;5.60;99.90;;;;;;20636488;28;20140;-46
2023/01/29 22:24:22;;;;;;;18.33;10.18;;;5.70;99.90;;;;;;20639640;28;20127;-46
2023/01/29 22:34:23;;;;;;;16.20;9.02;;;5.70;99.90;;;;;;20628437;28;20204;-46
2023/01/29 22:44:24;;;;;;;30.38;12.13;;;5.90;99.90;;;;;;20622541;28;20169;-46
2023/01/29 22:54:25;;;;;;;16.42;9.07;;;6.00;99.90;;;;;;20627939;28;20712;-46
2023/01/29 23:04:26;;;;;;;22.00;9.85;;;6.10;99.90;;;;;;20626879;28;20030;-46
2023/01/29 23:14:27;;;;;;;16.80;10.00;;;6.20;99.90;;;;;;20628585;28;20211;-46
2023/01/29 23:24:28;;;;;;;14.95;8.10;;;6.40;99.90;;;;;;20629932;28;20097;-46
2023/01/29 23:34:29;;;;;;;12.93;7.57;;;6.40;99.90;;;;;;20641676;28;20524;-46
2023/01/29 23:44:30;;;;;;;12.45;8.38;;;6.60;99.90;;;;;;20650285;28;20127;-47
2023/01/29 23:54:31;;;;;;;11.63;8.00;;;6.60;99.90;;;;;;20636109;28;20046;-47
